createdAt,value
2023-11-19T00:01:52.027Z,19.47
2023-11-19T00:04:18.715Z,19.45
2023-11-19T00:06:45.392Z,19.43
2023-11-19T00:09:12.944Z,19.45
2023-11-19T00:11:39.463Z,19.44
2023-11-19T00:14:09.648Z,19.43
2023-11-19T00:16:36.264Z,19.42
2023-11-19T00:19:02.795Z,19.42
2023-11-19T00:21:29.792Z,19.41
2023-11-19T00:23:56.749Z,19.41
2023-11-19T00:26:23.249Z,19.41
2023-11-19T00:28:49.871Z,19.40
2023-11-19T00:31:16.571Z,19.39
2023-11-19T00:36:12.738Z,19.38
2023-11-19T00:38:39.284Z,19.38
2023-11-19T00:41:05.947Z,19.37
2023-11-19T00:43:32.452Z,19.37
2023-11-19T00:45:59.167Z,19.37
2023-11-19T00:48:25.842Z,19.36
2023-11-19T00:50:52.355Z,19.35
2023-11-19T00:53:18.845Z,19.35
2023-11-19T00:55:47.337Z,19.33
2023-11-19T00:58:14.189Z,19.33
2023-11-19T01:00:41.053Z,19.32
2023-11-19T01:03:08.488Z,19.31
2023-11-19T01:05:35.137Z,19.31
2023-11-19T01:08:01.809Z,19.30
2023-11-19T01:10:29.955Z,19.29
2023-11-19T01:12:56.528Z,19.30
2023-11-19T01:15:24.003Z,19.30
2023-11-19T01:17:54.045Z,19.29
2023-11-19T01:20:21.518Z,19.29
2023-11-19T01:22:50.082Z,19.28
2023-11-19T01:25:17.154Z,19.27
2023-11-19T01:27:43.867Z,19.27
2023-11-19T01:30:14.193Z,19.26
2023-11-19T01:32:41.714Z,19.26
2023-11-19T01:35:11.703Z,19.25
2023-11-19T01:37:38.240Z,19.24
2023-11-19T01:40:06.234Z,19.24
2023-11-19T01:42:38.728Z,19.24
2023-11-19T01:45:08.255Z,19.23
2023-11-19T01:47:36.076Z,19.22
2023-11-19T01:50:07.131Z,19.22
2023-11-19T01:52:38.014Z,19.22
2023-11-19T01:55:05.451Z,19.20
2023-11-19T01:57:32.129Z,19.21
2023-11-19T01:59:59.323Z,19.21
2023-11-19T02:02:27.493Z,19.21
2023-11-19T02:04:54.651Z,19.19
2023-11-19T02:07:21.869Z,19.18
2023-11-19T02:09:48.561Z,19.18
2023-11-19T02:12:15.472Z,19.18
2023-11-19T02:14:42.041Z,19.17
2023-11-19T02:17:09.465Z,19.17
2023-11-19T02:19:35.955Z,19.17
2023-11-19T02:22:02.523Z,19.16
2023-11-19T02:24:32.632Z,19.15
2023-11-19T02:27:08.383Z,19.15
2023-11-19T02:29:36.091Z,19.15
2023-11-19T02:32:03.205Z,19.13
2023-11-19T02:34:29.828Z,19.14
2023-11-19T02:36:56.362Z,19.13
2023-11-19T02:39:22.987Z,19.13
2023-11-19T02:41:52.740Z,19.12
2023-11-19T02:44:19.222Z,19.12
2023-11-19T02:46:45.885Z,19.12
2023-11-19T02:49:12.438Z,19.11
2023-11-19T02:51:39.667Z,19.11
2023-11-19T02:54:06.284Z,19.11
2023-11-19T02:56:36.901Z,19.10
2023-11-19T02:59:15.729Z,19.09
2023-11-19T03:01:45.125Z,19.08
2023-11-19T03:04:13.578Z,19.08
2023-11-19T03:06:40.295Z,19.07
2023-11-19T03:09:11.431Z,19.07
2023-11-19T03:11:38.390Z,19.06
2023-11-19T03:14:04.912Z,19.06
2023-11-19T03:16:31.625Z,19.05
2023-11-19T03:18:58.340Z,19.06
2023-11-19T03:21:32.272Z,19.04
2023-11-19T03:24:02.249Z,19.03
2023-11-19T03:26:28.750Z,19.02
2023-11-19T03:28:55.508Z,19.03
2023-11-19T03:31:22.171Z,19.02
2023-11-19T03:33:48.872Z,19.02
2023-11-19T03:36:15.476Z,19.01
2023-11-19T03:38:43.857Z,19.00
2023-11-19T03:41:14.988Z,19.00
2023-11-19T03:43:42.447Z,19.01
2023-11-19T03:46:21.951Z,19.00
2023-11-19T03:48:49.813Z,18.99
2023-11-19T03:51:16.482Z,18.98
2023-11-19T03:53:46.836Z,18.98
2023-11-19T03:56:13.703Z,18.96
2023-11-19T03:58:40.510Z,18.96
2023-11-19T04:01:12.023Z,18.96
2023-11-19T04:06:16.905Z,18.96
2023-11-19T04:08:43.424Z,18.94
2023-11-19T04:11:09.983Z,18.95
2023-11-19T04:13:36.518Z,18.95
2023-11-19T04:16:03.304Z,18.92
2023-11-19T04:18:29.894Z,18.93
2023-11-19T04:20:56.499Z,18.91
2023-11-19T04:23:23.027Z,18.91
2023-11-19T04:25:49.671Z,18.90
2023-11-19T04:28:16.213Z,18.91
2023-11-19T04:30:42.948Z,18.90
2023-11-19T04:33:09.528Z,18.90
2023-11-19T04:35:36.138Z,18.89
2023-11-19T04:38:02.700Z,18.89
2023-11-19T04:40:29.254Z,18.88
2023-11-19T04:42:55.818Z,18.87
2023-11-19T04:45:22.408Z,18.88
2023-11-19T04:47:48.950Z,18.88
2023-11-19T04:50:15.555Z,18.85
2023-11-19T04:52:43.340Z,18.86
2023-11-19T04:55:12.758Z,18.86
2023-11-19T04:57:39.483Z,18.85
2023-11-19T05:00:17.019Z,18.85
2023-11-19T05:02:44.295Z,18.84
2023-11-19T05:05:11.175Z,18.84
2023-11-19T05:07:37.867Z,18.83
2023-11-19T05:10:05.670Z,18.83
2023-11-19T05:12:32.632Z,18.83
2023-11-19T05:14:59.208Z,18.82
2023-11-19T05:17:25.795Z,18.82
2023-11-19T05:19:52.372Z,18.80
2023-11-19T05:22:18.937Z,18.81
2023-11-19T05:24:45.682Z,18.80
2023-11-19T05:27:12.440Z,18.79
2023-11-19T05:29:40.306Z,18.80
2023-11-19T05:32:06.880Z,18.79
2023-11-19T05:34:33.430Z,18.77
2023-11-19T05:36:59.951Z,18.78
2023-11-19T05:39:26.923Z,18.78
2023-11-19T05:41:53.464Z,18.77
2023-11-19T05:44:20.408Z,18.76
2023-11-19T05:46:47.130Z,18.76
2023-11-19T05:49:14.482Z,18.75
2023-11-19T05:51:41.786Z,18.75
2023-11-19T05:54:09.849Z,18.73
2023-11-19T05:56:36.968Z,18.74
2023-11-19T05:59:15.614Z,18.74
2023-11-19T06:01:42.861Z,18.73
2023-11-19T06:04:09.504Z,18.72
2023-11-19T06:06:36.049Z,18.72
2023-11-19T06:09:13.324Z,18.72
2023-11-19T06:11:40.323Z,18.72
2023-11-19T06:14:08.364Z,18.70
2023-11-19T06:16:35.029Z,18.70
2023-11-19T06:19:01.804Z,18.68
2023-11-19T06:21:28.553Z,18.68
2023-11-19T06:23:55.685Z,18.67
2023-11-19T06:26:23.384Z,18.67
2023-11-19T06:28:49.993Z,18.67
2023-11-19T06:31:17.385Z,18.67
2023-11-19T06:33:44.427Z,18.65
2023-11-19T06:36:11.615Z,18.66
2023-11-19T06:38:38.223Z,18.64
2023-11-19T06:41:10.443Z,18.65
2023-11-19T06:46:16.147Z,18.64
2023-11-19T06:48:45.034Z,18.63
2023-11-19T06:51:12.450Z,18.62
2023-11-19T06:53:40.717Z,18.62
2023-11-19T06:56:18.507Z,18.62
2023-11-19T06:58:45.055Z,18.61
2023-11-19T07:01:12.030Z,18.61
2023-11-19T07:03:38.686Z,18.60
2023-11-19T07:06:06.542Z,18.59
2023-11-19T07:08:33.180Z,18.60
2023-11-19T07:10:59.838Z,18.60
2023-11-19T07:13:28.928Z,18.58
2023-11-19T07:15:57.574Z,18.58
2023-11-19T07:18:24.181Z,18.58
2023-11-19T07:20:50.782Z,18.58
2023-11-19T07:23:17.674Z,18.56
2023-11-19T07:25:47.829Z,18.57
2023-11-19T07:28:15.580Z,18.55
2023-11-19T07:30:42.700Z,18.56
2023-11-19T07:33:09.463Z,18.54
2023-11-19T07:35:36.360Z,18.55
2023-11-19T07:38:03.446Z,18.54
2023-11-19T07:40:30.010Z,18.56
2023-11-19T07:42:56.556Z,18.56
2023-11-19T07:45:23.118Z,18.56
2023-11-19T07:47:49.753Z,18.56
2023-11-19T07:50:18.023Z,18.56
2023-11-19T07:52:44.667Z,18.57
2023-11-19T07:55:11.256Z,18.58
2023-11-19T07:57:37.783Z,18.57
2023-11-19T08:00:05.279Z,18.57
2023-11-19T08:02:32.111Z,18.59
2023-11-19T08:04:58.965Z,18.60
2023-11-19T08:07:25.549Z,18.60
2023-11-19T08:09:52.046Z,18.61
2023-11-19T08:12:18.789Z,18.60
2023-11-19T08:14:45.815Z,18.61
2023-11-19T08:17:12.370Z,18.61
2023-11-19T08:19:38.977Z,18.63
2023-11-19T08:22:05.509Z,18.63
2023-11-19T08:24:32.084Z,18.64
2023-11-19T08:29:28.986Z,18.67
2023-11-19T08:31:55.509Z,18.65
2023-11-19T08:34:22.092Z,18.68
2023-11-19T08:36:52.193Z,18.68
2023-11-19T08:39:18.713Z,18.68
2023-11-19T08:41:45.446Z,18.68
2023-11-19T08:44:12.040Z,18.69
2023-11-19T08:46:38.590Z,18.70
2023-11-19T08:49:06.458Z,18.69
2023-11-19T08:51:32.957Z,18.67
2023-11-19T08:53:59.480Z,18.69
2023-11-19T08:56:26.417Z,18.68
2023-11-19T08:58:52.918Z,18.68
2023-11-19T09:01:19.520Z,18.66
2023-11-19T09:03:46.268Z,18.65
2023-11-19T09:06:13.312Z,18.65
2023-11-19T09:08:39.925Z,18.65
2023-11-19T09:11:09.626Z,18.64
2023-11-19T09:13:37.165Z,18.64
2023-11-19T09:16:04.862Z,18.64
2023-11-19T09:18:32.993Z,18.64
2023-11-19T09:20:59.626Z,18.64
2023-11-19T09:23:26.454Z,18.65
2023-11-19T09:25:53.118Z,18.67
2023-11-19T09:28:19.625Z,18.67
2023-11-19T09:30:46.170Z,18.65
2023-11-19T09:33:12.802Z,18.65
2023-11-19T09:35:39.354Z,18.67
2023-11-19T09:38:06.632Z,18.70
2023-11-19T09:40:33.284Z,18.72
2023-11-19T09:43:00.657Z,18.72
2023-11-19T09:45:29.135Z,18.75
2023-11-19T09:47:58.447Z,18.75
2023-11-19T09:50:25.097Z,18.75
2023-11-19T09:52:51.929Z,18.76
2023-11-19T09:55:18.757Z,18.76
2023-11-19T09:57:46.549Z,18.76
2023-11-19T10:00:16.793Z,18.77
2023-11-19T10:02:47.515Z,18.75
2023-11-19T10:05:16.086Z,18.75
2023-11-19T10:07:43.853Z,18.74
2023-11-19T10:10:11.964Z,18.73
2023-11-19T10:12:38.584Z,18.74
2023-11-19T10:15:08.240Z,18.72
2023-11-19T10:17:35.879Z,18.72
2023-11-19T10:20:02.521Z,18.72
2023-11-19T10:22:29.235Z,18.71
2023-11-19T10:24:56.876Z,18.73
2023-11-19T10:27:26.755Z,18.74
2023-11-19T10:29:53.447Z,18.74
2023-11-19T10:32:25.628Z,18.76
2023-11-19T10:35:05.921Z,18.76
2023-11-19T10:37:34.334Z,18.79
2023-11-19T10:40:01.150Z,18.80
2023-11-19T10:42:27.800Z,18.81
2023-11-19T10:44:54.425Z,18.84
2023-11-19T10:47:38.051Z,18.86
2023-11-19T10:50:07.375Z,18.87
2023-11-19T10:52:34.577Z,18.90
2023-11-19T10:55:02.781Z,18.94
2023-11-19T10:57:34.079Z,18.97
2023-11-19T11:00:04.703Z,19.01
2023-11-19T11:02:37.023Z,19.05
2023-11-19T11:05:04.632Z,19.07
2023-11-19T11:07:39.647Z,19.08
2023-11-19T11:10:10.759Z,19.08
2023-11-19T11:12:43.328Z,19.09
2023-11-19T11:15:13.532Z,19.09
2023-11-19T11:17:43.567Z,19.11
2023-11-19T11:20:11.003Z,19.12
2023-11-19T11:23:04.208Z,19.14
2023-11-19T11:25:51.105Z,19.16
2023-11-19T11:28:44.460Z,19.17
2023-11-19T11:31:26.696Z,19.19
2023-11-19T11:34:20.632Z,19.18
2023-11-19T11:37:11.125Z,19.17
2023-11-19T11:39:38.018Z,19.17
2023-11-19T11:42:29.227Z,19.17
2023-11-19T11:45:09.284Z,19.17
2023-11-19T11:47:45.964Z,19.18
2023-11-19T11:50:20.549Z,19.17
2023-11-19T11:52:59.586Z,19.18
2023-11-19T11:55:29.864Z,19.20
2023-11-19T11:57:56.833Z,19.22
2023-11-19T12:00:27.738Z,19.22
2023-11-19T12:02:58.339Z,19.27
2023-11-19T12:05:25.093Z,19.26
2023-11-19T12:08:02.248Z,19.28
2023-11-19T12:10:33.452Z,19.28
2023-11-19T12:13:01.262Z,19.28
2023-11-19T12:15:28.886Z,19.28
2023-11-19T12:17:56.308Z,19.29
2023-11-19T12:22:54.958Z,19.30
2023-11-19T12:25:23.139Z,19.29
2023-11-19T12:27:52.025Z,19.27
2023-11-19T12:30:28.304Z,19.28
2023-11-19T12:32:55.926Z,19.27
2023-11-19T12:35:23.769Z,19.25
2023-11-19T12:37:51.968Z,19.24
2023-11-19T12:40:20.902Z,19.26
2023-11-19T12:42:47.931Z,19.25
2023-11-19T12:45:15.565Z,19.28
2023-11-19T12:47:42.291Z,19.28
2023-11-19T12:50:10.180Z,19.30
2023-11-19T12:52:37.521Z,19.33
2023-11-19T12:55:30.097Z,19.32
2023-11-19T12:57:59.242Z,19.37
2023-11-19T13:00:28.497Z,19.40
2023-11-19T13:02:57.162Z,19.42
2023-11-19T13:05:23.843Z,19.44
2023-11-19T13:07:50.392Z,19.48
2023-11-19T13:10:18.774Z,19.51
2023-11-19T13:13:07.554Z,19.56
2023-11-19T13:15:34.876Z,19.59
2023-11-19T13:18:02.584Z,19.63
2023-11-19T13:20:29.760Z,19.68
2023-11-19T13:23:01.996Z,19.72
2023-11-19T13:25:29.522Z,19.76
2023-11-19T13:27:56.596Z,19.77
2023-11-19T13:32:56.515Z,19.79
2023-11-19T13:35:28.726Z,19.82
2023-11-19T13:37:55.256Z,19.82
2023-11-19T13:40:23.525Z,19.84
2023-11-19T13:42:50.188Z,19.85
2023-11-19T13:45:18.811Z,19.87
2023-11-19T13:47:46.437Z,19.88
2023-11-19T13:50:15.784Z,19.90
2023-11-19T13:52:46.255Z,19.89
2023-11-19T13:55:13.593Z,19.92
2023-11-19T13:57:41.509Z,19.91
2023-11-19T14:00:24.946Z,19.92
2023-11-19T14:02:51.750Z,19.92
2023-11-19T14:05:37.828Z,19.92
2023-11-19T14:08:19.617Z,19.92
2023-11-19T14:10:50.747Z,19.93
2023-11-19T14:13:17.309Z,19.92
2023-11-19T14:15:44.763Z,19.91
2023-11-19T14:18:12.557Z,19.91
2023-11-19T14:20:40.597Z,19.91
2023-11-19T14:23:07.106Z,19.90
2023-11-19T14:25:33.717Z,19.89
2023-11-19T14:28:02.330Z,19.89
2023-11-19T14:30:29.937Z,19.87
2023-11-19T14:32:56.658Z,19.86
2023-11-19T14:35:23.744Z,19.86
2023-11-19T14:37:50.304Z,19.86
2023-11-19T14:40:16.879Z,19.85
2023-11-19T14:42:44.122Z,19.84
2023-11-19T14:45:13.407Z,19.83
2023-11-19T14:47:40.237Z,19.81
2023-11-19T14:50:08.007Z,19.82
2023-11-19T14:52:36.541Z,19.82
2023-11-19T14:55:03.718Z,19.80
2023-11-19T14:57:30.625Z,19.80
2023-11-19T14:59:57.328Z,19.77
2023-11-19T15:02:23.956Z,19.79
2023-11-19T15:04:50.571Z,19.75
2023-11-19T15:07:17.202Z,19.77
2023-11-19T15:09:43.760Z,19.75
2023-11-19T15:12:10.635Z,19.76
2023-11-19T15:14:37.337Z,19.75
2023-11-19T15:17:04.221Z,19.73
2023-11-19T15:19:30.861Z,19.73
2023-11-19T15:21:57.999Z,19.73
2023-11-19T15:24:26.459Z,19.72
2023-11-19T15:26:53.377Z,19.71
2023-11-19T15:29:20.305Z,19.70
2023-11-19T15:31:47.450Z,19.71
2023-11-19T15:34:14.608Z,19.68
2023-11-19T15:36:41.149Z,19.68
2023-11-19T15:39:07.787Z,19.69
2023-11-19T15:41:34.462Z,19.67
2023-11-19T15:44:01.182Z,19.67
2023-11-19T15:46:27.824Z,19.67
2023-11-19T15:48:54.365Z,19.66
2023-11-19T15:51:20.903Z,19.66
2023-11-19T15:53:47.700Z,19.66
2023-11-19T15:56:14.946Z,19.64
2023-11-19T15:58:41.670Z,19.64
2023-11-19T16:01:11.665Z,19.63
2023-11-19T16:06:10.347Z,19.66
2023-11-19T16:08:39.559Z,19.71
2023-11-19T16:11:07.212Z,19.73
2023-11-19T16:13:33.932Z,19.74
2023-11-19T16:16:00.437Z,19.76
2023-11-19T16:18:28.873Z,19.78
2023-11-19T16:20:56.418Z,19.82
2023-11-19T16:23:23.052Z,19.82
2023-11-19T16:25:51.032Z,19.82
2023-11-19T16:28:18.463Z,19.82
2023-11-19T16:30:45.070Z,19.84
2023-11-19T16:33:17.280Z,19.84
2023-11-19T16:35:51.419Z,19.83
2023-11-19T16:38:18.023Z,19.83
2023-11-19T16:40:45.199Z,19.82
2023-11-19T16:43:12.012Z,19.82
2023-11-19T16:45:38.740Z,19.82
2023-11-19T16:48:05.917Z,19.84
2023-11-19T16:50:32.889Z,19.83
2023-11-19T16:53:01.292Z,19.85
2023-11-19T16:55:28.221Z,19.87
2023-11-19T16:57:55.305Z,19.88
2023-11-19T17:00:22.523Z,19.89
2023-11-19T17:02:51.690Z,19.92
2023-11-19T17:05:19.034Z,19.94
2023-11-19T17:07:48.094Z,19.93
2023-11-19T17:10:16.219Z,19.97
2023-11-19T17:12:42.961Z,19.99
2023-11-19T17:15:11.903Z,20.00
2023-11-19T17:17:39.253Z,20.01
2023-11-19T17:20:07.893Z,20.02
2023-11-19T17:22:35.868Z,20.04
2023-11-19T17:25:04.149Z,20.06
2023-11-19T17:27:31.603Z,20.06
2023-11-19T17:29:59.026Z,20.08
2023-11-19T17:32:26.500Z,20.10
2023-11-19T17:34:54.531Z,20.09
2023-11-19T17:37:21.145Z,20.12
2023-11-19T17:39:48.020Z,20.14
2023-11-19T17:42:14.859Z,20.15
2023-11-19T17:44:41.749Z,20.17
2023-11-19T17:47:09.572Z,20.17
2023-11-19T17:49:36.545Z,20.20
2023-11-19T17:52:03.291Z,20.22
2023-11-19T17:54:30.588Z,20.25
2023-11-19T17:56:58.309Z,20.25
2023-11-19T17:59:26.297Z,20.25
2023-11-19T18:01:57.829Z,20.27
2023-11-19T18:04:26.927Z,20.27
2023-11-19T18:06:54.075Z,20.31
2023-11-19T18:09:20.955Z,20.32
2023-11-19T18:11:48.604Z,20.34
2023-11-19T18:14:15.220Z,20.34
2023-11-19T18:16:41.792Z,20.35
2023-11-19T18:19:08.521Z,20.35
2023-11-19T18:21:35.133Z,20.34
2023-11-19T18:24:01.952Z,20.33
2023-11-19T18:28:58.306Z,20.33
2023-11-19T18:31:25.964Z,20.33
2023-11-19T18:33:52.939Z,20.34
2023-11-19T18:36:19.555Z,20.33
2023-11-19T18:38:46.283Z,20.35
2023-11-19T18:41:14.410Z,20.35
2023-11-19T18:43:41.746Z,20.34
2023-11-19T18:46:09.748Z,20.34
2023-11-19T18:48:37.426Z,20.35
2023-11-19T18:51:04.590Z,20.36
2023-11-19T18:53:31.662Z,20.36
2023-11-19T18:55:58.352Z,20.35
2023-11-19T18:58:25.184Z,20.35
2023-11-19T19:00:51.912Z,20.34
2023-11-19T19:03:23.217Z,20.34
2023-11-19T19:05:50.829Z,20.34
2023-11-19T19:08:18.161Z,20.33
2023-11-19T19:10:46.029Z,20.34
2023-11-19T19:13:13.047Z,20.32
2023-11-19T19:15:39.946Z,20.33
2023-11-19T19:18:07.306Z,20.32
2023-11-19T19:20:34.687Z,20.31
2023-11-19T19:23:02.059Z,20.32
2023-11-19T19:25:31.531Z,20.32
2023-11-19T19:28:22.589Z,20.28
2023-11-19T19:30:45.738Z,20.29
2023-11-19T19:33:15.564Z,20.30
2023-11-19T19:35:42.208Z,20.29
2023-11-19T19:38:10.640Z,20.29
2023-11-19T19:40:37.266Z,20.31
2023-11-19T19:43:05.404Z,20.30
2023-11-19T19:45:33.139Z,20.31
2023-11-19T19:48:00.035Z,20.28
2023-11-19T19:50:26.953Z,20.29
2023-11-19T19:52:53.619Z,20.28
2023-11-19T19:55:22.330Z,20.28
2023-11-19T19:57:49.289Z,20.28
2023-11-19T20:00:17.593Z,20.28
2023-11-19T20:02:45.852Z,20.26
2023-11-19T20:05:13.676Z,20.24
2023-11-19T20:07:41.796Z,20.24
2023-11-19T20:10:11.591Z,20.24
2023-11-19T20:12:39.266Z,20.23
2023-11-19T20:15:07.411Z,20.23
2023-11-19T20:17:34.010Z,20.24
2023-11-19T20:20:02.101Z,20.23
2023-11-19T20:22:28.712Z,20.22
2023-11-19T20:24:55.440Z,20.22
2023-11-19T20:27:22.056Z,20.23
2023-11-19T20:29:49.075Z,20.23
2023-11-19T20:32:15.851Z,20.22
2023-11-19T20:34:43.094Z,20.22
2023-11-19T20:37:09.820Z,20.22
2023-11-19T20:39:36.541Z,20.21
2023-11-19T20:42:05.387Z,20.20
2023-11-19T20:44:32.522Z,20.19
2023-11-19T20:47:01.094Z,20.19
2023-11-19T20:49:27.868Z,20.18
2023-11-19T20:51:54.427Z,20.17
2023-11-19T20:54:39.698Z,20.17
2023-11-19T20:57:06.672Z,20.16
2023-11-19T20:59:34.070Z,20.15
2023-11-19T21:02:00.743Z,20.13
2023-11-19T21:04:27.683Z,20.14
2023-11-19T21:06:55.161Z,20.12
2023-11-19T21:09:24.183Z,20.11
2023-11-19T21:11:51.443Z,20.11
2023-11-19T21:14:19.260Z,20.10
2023-11-19T21:16:46.066Z,20.09
2023-11-19T21:19:12.869Z,20.10
2023-11-19T21:21:41.299Z,20.09
2023-11-19T21:24:10.682Z,20.08
2023-11-19T21:26:37.699Z,20.07
2023-11-19T21:29:04.289Z,20.08
2023-11-19T21:31:31.026Z,20.06
2023-11-19T21:33:58.571Z,20.06
2023-11-19T21:36:25.812Z,20.06
2023-11-19T21:38:52.564Z,20.03
2023-11-19T21:41:19.108Z,20.02
2023-11-19T21:46:18.478Z,20.01
2023-11-19T21:48:45.044Z,20.00
2023-11-19T21:51:11.595Z,19.98
2023-11-19T21:53:39.289Z,19.97
2023-11-19T21:58:35.910Z,19.95
2023-11-19T22:01:02.652Z,19.93
2023-11-19T22:03:29.476Z,19.92
2023-11-19T22:05:56.061Z,19.93
2023-11-19T22:08:22.589Z,19.93
2023-11-19T22:10:49.222Z,19.90
2023-11-19T22:13:15.739Z,19.90
2023-11-19T22:15:42.424Z,19.89
2023-11-19T22:18:11.425Z,19.87
2023-11-19T22:20:38.977Z,19.87
2023-11-19T22:23:05.506Z,19.87
2023-11-19T22:25:32.072Z,19.87
2023-11-19T22:27:58.684Z,19.86
2023-11-19T22:30:25.300Z,19.85
2023-11-19T22:32:52.410Z,19.82
2023-11-19T22:35:19.081Z,19.82
2023-11-19T22:37:45.692Z,19.83
2023-11-19T22:40:13.286Z,19.80
2023-11-19T22:42:40.180Z,19.80
2023-11-19T22:45:07.614Z,19.79
2023-11-19T22:47:34.670Z,19.80
2023-11-19T22:50:01.267Z,19.79
2023-11-19T22:52:27.925Z,19.77
2023-11-19T22:54:54.791Z,19.78
2023-11-19T22:57:21.587Z,19.77
2023-11-19T22:59:48.191Z,19.77
2023-11-19T23:02:14.766Z,19.75
2023-11-19T23:04:41.347Z,19.74
2023-11-19T23:07:07.957Z,19.74
2023-11-19T23:09:34.660Z,19.73
2023-11-19T23:12:01.256Z,19.72
2023-11-19T23:14:27.912Z,19.72
2023-11-19T23:16:54.726Z,19.71
2023-11-19T23:19:21.454Z,19.70
2023-11-19T23:21:48.097Z,19.71
2023-11-19T23:24:14.770Z,19.70
2023-11-19T23:26:42.663Z,19.69
2023-11-19T23:29:15.124Z,19.68
2023-11-19T23:31:45.062Z,19.68
2023-11-19T23:34:11.534Z,19.67
2023-11-19T23:36:38.099Z,19.66
2023-11-19T23:39:07.442Z,19.66
2023-11-19T23:41:34.190Z,19.65
2023-11-19T23:44:00.695Z,19.64
2023-11-19T23:46:27.532Z,19.63
2023-11-19T23:51:26.204Z,19.62
2023-11-19T23:53:53.856Z,19.62
2023-11-19T23:56:20.502Z,19.60
2023-11-19T23:58:47.012Z,19.59
